createdAt,value
2022-10-17T00:00:10.864Z,101226.33
2022-10-17T00:04:27.953Z,101242.14
2022-10-17T00:08:25.912Z,101245.23
2022-10-17T00:12:22.414Z,101244.96
2022-10-17T00:16:30.083Z,101254.46
2022-10-17T00:20:06.945Z,101255.19
2022-10-17T00:24:07.128Z,101251.94
2022-10-17T00:28:04.109Z,101246.67
2022-10-17T00:32:01.653Z,101246.58
2022-10-17T00:36:18.929Z,101238.86
2022-10-17T00:40:16.144Z,101243.27
2022-10-17T00:44:32.148Z,101243.23
2022-10-17T00:48:28.897Z,101253.30
2022-10-17T00:52:30.193Z,101253.05
2022-10-17T00:56:28.136Z,101262.74
2022-10-17T01:00:25.406Z,101261.70
2022-10-17T01:04:22.567Z,101253.99
2022-10-17T01:08:19.897Z,101251.89
2022-10-17T01:12:24.266Z,101254.63
2022-10-17T01:16:39.678Z,101255.95
2022-10-17T01:21:19.909Z,101263.58
2022-10-17T01:25:35.708Z,101264.80
2022-10-17T01:29:58.289Z,101265.14
2022-10-17T01:34:12.731Z,101261.55
2022-10-17T01:38:21.238Z,101259.80
2022-10-17T01:42:54.142Z,101246.05
2022-10-17T01:47:00.542Z,101253.54
2022-10-17T01:51:06.689Z,101251.34
2022-10-17T01:55:09.544Z,101254.38
2022-10-17T01:59:22.529Z,101260.36
2022-10-17T02:03:41.168Z,101260.31
2022-10-17T02:06:56.848Z,101259.71
2022-10-17T02:11:07.249Z,101258.37
2022-10-17T02:15:20.629Z,101261.39
2022-10-17T02:19:52.034Z,101264.91
2022-10-17T02:24:21.477Z,101264.95
2022-10-17T02:28:31.708Z,101269.65
2022-10-17T02:32:42.801Z,101269.97
2022-10-17T02:36:56.142Z,101277.35
2022-10-17T02:40:54.618Z,101285.06
2022-10-17T02:44:54.254Z,101290.69
2022-10-17T02:49:02.074Z,101294.00
2022-10-17T02:53:07.604Z,101304.30
2022-10-17T02:57:17.265Z,101304.02
2022-10-17T03:01:23.355Z,101306.53
2022-10-17T03:05:29.655Z,101318.00
2022-10-17T03:09:26.869Z,101318.77
2022-10-17T03:13:24.334Z,101324.98
2022-10-17T03:17:21.397Z,101339.17
2022-10-17T03:21:18.540Z,101337.36
2022-10-17T03:25:16.415Z,101334.14
2022-10-17T03:29:14.254Z,101333.32
2022-10-17T03:33:14.630Z,101335.36
2022-10-17T03:37:11.989Z,101341.77
2022-10-17T03:41:10.132Z,101345.70
2022-10-17T03:45:07.744Z,101348.23
2022-10-17T03:49:04.694Z,101342.08
2022-10-17T03:53:02.274Z,101337.32
2022-10-17T03:56:59.656Z,101341.36
2022-10-17T04:00:56.746Z,101340.61
2022-10-17T04:04:54.153Z,101337.18
2022-10-17T04:08:51.728Z,101338.42
2022-10-17T04:12:48.790Z,101349.06
2022-10-17T04:16:45.837Z,101357.24
2022-10-17T04:20:42.890Z,101350.44
2022-10-17T04:24:40.265Z,101357.87
2022-10-17T04:32:39.901Z,101364.09
2022-10-17T04:36:38.398Z,101367.61
2022-10-17T04:40:36.645Z,101370.42
2022-10-17T04:44:35.979Z,101365.80
2022-10-17T04:48:12.169Z,101362.93
2022-10-17T04:51:51.498Z,101366.19
2022-10-17T04:55:27.738Z,101364.99
2022-10-17T04:59:05.277Z,101378.40
2022-10-17T05:02:43.002Z,101382.73
2022-10-17T05:06:24.862Z,101381.50
2022-10-17T05:10:00.991Z,101388.48
2022-10-17T05:13:38.887Z,101393.41
2022-10-17T05:17:16.854Z,101405.52
2022-10-17T05:20:54.617Z,101414.64
2022-10-17T05:24:32.054Z,101423.25
2022-10-17T05:28:09.756Z,101428.66
2022-10-17T05:31:51.977Z,101419.73
2022-10-17T05:35:30.895Z,101410.64
2022-10-17T05:39:07.368Z,101426.04
2022-10-17T05:42:49.283Z,101441.19
2022-10-17T05:46:26.972Z,101443.59
2022-10-17T05:50:03.111Z,101449.74
2022-10-17T05:53:42.315Z,101460.85
2022-10-17T05:57:19.492Z,101460.20
2022-10-17T06:01:03.915Z,101460.93
2022-10-17T06:04:45.629Z,101471.33
2022-10-17T06:08:22.284Z,101470.51
2022-10-17T06:12:00.470Z,101466.27
2022-10-17T06:15:37.025Z,101462.84
2022-10-17T06:19:14.899Z,101460.55
2022-10-17T06:22:52.871Z,101473.64
2022-10-17T06:26:30.233Z,101476.84
2022-10-17T06:30:08.829Z,101478.30
2022-10-17T06:33:45.520Z,101477.66
2022-10-17T06:37:23.082Z,101473.77
2022-10-17T06:41:14.286Z,101482.67
2022-10-17T06:44:50.354Z,101490.84
2022-10-17T06:48:27.899Z,101497.11
2022-10-17T06:52:24.536Z,101498.46
2022-10-17T06:55:43.612Z,101498.81
2022-10-17T06:59:22.655Z,101501.66
2022-10-17T07:02:58.608Z,101507.26
2022-10-17T07:06:38.007Z,101509.46
2022-10-17T07:10:14.305Z,101506.80
2022-10-17T07:13:54.925Z,101507.36
2022-10-17T07:17:32.178Z,101510.09
2022-10-17T07:21:09.121Z,101519.21
2022-10-17T07:24:46.514Z,101516.86
2022-10-17T07:28:23.998Z,101517.61
2022-10-17T07:32:04.124Z,101521.34
2022-10-17T07:35:43.406Z,101523.70
2022-10-17T07:39:20.669Z,101521.23
2022-10-17T07:42:57.295Z,101521.87
2022-10-17T07:46:36.267Z,101531.98
2022-10-17T07:50:12.770Z,101540.77
2022-10-17T07:53:51.115Z,101541.80
2022-10-17T07:57:30.400Z,101538.94
2022-10-17T08:01:15.655Z,101543.88
2022-10-17T08:04:59.984Z,101557.52
2022-10-17T08:08:37.931Z,101564.41
2022-10-17T08:12:15.850Z,101569.91
2022-10-17T08:15:53.070Z,101572.09
2022-10-17T08:19:31.365Z,101569.46
2022-10-17T08:23:08.520Z,101569.84
2022-10-17T08:26:48.233Z,101564.41
2022-10-17T08:30:30.942Z,101564.48
2022-10-17T08:34:08.368Z,101561.67
2022-10-17T08:37:45.710Z,101562.91
2022-10-17T08:41:45.725Z,101562.14
2022-10-17T08:45:38.175Z,101557.41
2022-10-17T08:49:47.533Z,101550.86
2022-10-17T08:53:48.007Z,101555.61
2022-10-17T08:57:24.305Z,101559.98
2022-10-17T09:01:12.678Z,101563.63
2022-10-17T09:05:29.534Z,101562.20
2022-10-17T09:09:24.708Z,101569.68
2022-10-17T09:13:25.167Z,101563.13
2022-10-17T09:17:35.362Z,101553.55
2022-10-17T09:21:17.669Z,101549.21
2022-10-17T09:25:06.988Z,101550.36
2022-10-17T09:28:44.576Z,101556.77
2022-10-17T09:32:25.891Z,101563.73
2022-10-17T09:36:05.671Z,101565.55
2022-10-17T09:40:00.973Z,101564.16
2022-10-17T09:43:20.487Z,101558.73
2022-10-17T09:47:05.896Z,101555.59
2022-10-17T09:50:48.264Z,101556.02
2022-10-17T09:54:43.397Z,101551.05
2022-10-17T09:58:21.372Z,101552.23
2022-10-17T10:02:19.273Z,101549.54
2022-10-17T10:06:05.454Z,101544.92
2022-10-17T10:09:48.784Z,101541.19
2022-10-17T10:13:27.795Z,101538.45
2022-10-17T10:17:06.457Z,101536.48
2022-10-17T10:20:46.969Z,101538.40
2022-10-17T10:24:30.612Z,101534.94
2022-10-17T10:28:12.420Z,101538.35
2022-10-17T10:31:49.969Z,101536.38
2022-10-17T10:35:34.617Z,101535.53
2022-10-17T10:39:40.309Z,101533.27
2022-10-17T10:43:41.651Z,101539.16
2022-10-17T10:47:20.301Z,101541.81
2022-10-17T10:51:14.531Z,101533.19
2022-10-17T10:54:59.766Z,101535.02
2022-10-17T10:58:50.855Z,101531.92
2022-10-17T11:02:31.047Z,101528.52
2022-10-17T11:06:19.345Z,101530.21
2022-10-17T11:10:03.175Z,101528.40
2022-10-17T11:13:54.263Z,101533.66
2022-10-17T11:17:32.045Z,101528.30
2022-10-17T11:21:20.122Z,101529.91
2022-10-17T11:25:32.538Z,101519.15
2022-10-17T11:29:32.369Z,101520.96
2022-10-17T11:32:53.911Z,101528.20
2022-10-17T11:36:33.775Z,101530.93
2022-10-17T11:40:33.974Z,101525.63
2022-10-17T11:44:22.268Z,101523.17
2022-10-17T11:48:10.868Z,101525.63
2022-10-17T11:52:43.995Z,101529.30
2022-10-17T11:56:42.680Z,101524.23
2022-10-17T12:00:42.756Z,101534.89
2022-10-17T12:04:49.713Z,101537.63
2022-10-17T12:09:01.803Z,101534.86
2022-10-17T12:12:40.559Z,101536.46
2022-10-17T12:16:19.790Z,101532.40
2022-10-17T12:20:18.831Z,101527.45
2022-10-17T12:23:56.028Z,101527.08
2022-10-17T12:28:13.379Z,101527.16
2022-10-17T12:31:49.513Z,101511.50
2022-10-17T12:35:28.977Z,101510.24
2022-10-17T12:39:07.802Z,101504.84
2022-10-17T12:42:49.753Z,101503.64
2022-10-17T12:46:44.446Z,101500.92
2022-10-17T12:51:17.665Z,101499.56
2022-10-17T12:55:12.658Z,101491.75
2022-10-17T12:59:16.216Z,101486.84
2022-10-17T13:02:55.571Z,101481.30
2022-10-17T13:06:38.068Z,101486.44
2022-10-17T13:10:22.320Z,101482.52
2022-10-17T13:14:01.284Z,101485.72
2022-10-17T13:17:43.036Z,101490.59
2022-10-17T13:21:21.149Z,101491.09
2022-10-17T13:25:19.995Z,101490.64
2022-10-17T13:29:07.446Z,101494.23
2022-10-17T13:32:45.809Z,101488.41
2022-10-17T13:36:21.897Z,101483.53
2022-10-17T13:40:06.965Z,101480.35
2022-10-17T13:43:58.345Z,101478.45
2022-10-17T13:47:39.420Z,101470.48
2022-10-17T13:51:16.954Z,101469.31
2022-10-17T13:54:54.807Z,101467.09
2022-10-17T13:58:44.183Z,101469.05
2022-10-17T14:02:29.518Z,101460.20
2022-10-17T14:06:15.658Z,101456.53
2022-10-17T14:09:52.261Z,101454.44
2022-10-17T14:13:36.180Z,101452.02
2022-10-17T14:17:25.207Z,101451.18
2022-10-17T14:25:03.726Z,101435.23
2022-10-17T14:28:41.762Z,101436.17
2022-10-17T14:32:22.336Z,101430.92
2022-10-17T14:36:03.873Z,101425.40
2022-10-17T14:39:41.069Z,101420.65
2022-10-17T14:43:23.957Z,101419.36
2022-10-17T14:47:30.154Z,101416.00
2022-10-17T14:51:18.604Z,101414.84
2022-10-17T14:54:56.344Z,101413.63
2022-10-17T14:58:33.946Z,101413.04
2022-10-17T15:02:15.124Z,101416.13
2022-10-17T15:05:52.927Z,101415.84
2022-10-17T15:09:30.124Z,101420.19
2022-10-17T15:13:27.067Z,101420.59
2022-10-17T15:17:05.745Z,101419.34
2022-10-17T15:20:41.715Z,101421.85
2022-10-17T15:24:19.593Z,101422.75
2022-10-17T15:27:57.840Z,101420.75
2022-10-17T15:31:36.459Z,101425.14
2022-10-17T15:35:14.057Z,101423.85
2022-10-17T15:38:53.663Z,101422.61
2022-10-17T15:42:30.998Z,101417.42
2022-10-17T15:46:14.389Z,101413.77
2022-10-17T15:49:51.537Z,101409.34
2022-10-17T15:53:28.413Z,101414.02
2022-10-17T15:57:06.431Z,101414.98
2022-10-17T16:00:44.231Z,101417.30
2022-10-17T16:04:22.079Z,101415.02
2022-10-17T16:07:58.894Z,101414.66
2022-10-17T16:11:55.684Z,101408.90
2022-10-17T16:15:20.989Z,101407.42
2022-10-17T16:19:16.500Z,101408.79
2022-10-17T16:22:40.826Z,101405.19
2022-10-17T16:26:17.674Z,101401.58
2022-10-17T16:29:54.645Z,101396.34
2022-10-17T16:33:32.452Z,101393.86
2022-10-17T16:37:10.219Z,101391.71
2022-10-17T16:40:47.844Z,101395.97
2022-10-17T16:44:25.196Z,101392.52
2022-10-17T16:48:03.182Z,101388.41
2022-10-17T16:51:40.644Z,101386.37
2022-10-17T16:55:19.565Z,101389.37
2022-10-17T16:58:57.096Z,101392.00
2022-10-17T17:02:34.877Z,101390.45
2022-10-17T17:06:20.954Z,101391.98
2022-10-17T17:09:57.297Z,101392.65
2022-10-17T17:13:35.915Z,101388.84
2022-10-17T17:17:19.623Z,101383.30
2022-10-17T17:21:09.723Z,101386.94
2022-10-17T17:24:47.274Z,101389.61
2022-10-17T17:28:24.285Z,101388.00
2022-10-17T17:32:01.222Z,101387.96
2022-10-17T17:35:41.529Z,101389.34
2022-10-17T17:39:17.727Z,101382.47
2022-10-17T17:42:56.112Z,101386.41
2022-10-17T17:46:33.659Z,101385.60
2022-10-17T17:50:11.566Z,101384.77
2022-10-17T17:53:49.577Z,101381.71
2022-10-17T17:57:26.370Z,101378.52
2022-10-17T18:01:14.310Z,101379.60
2022-10-17T18:04:51.905Z,101381.83
2022-10-17T18:08:30.425Z,101380.83
2022-10-17T18:12:07.722Z,101383.81
2022-10-17T18:15:44.955Z,101388.09
2022-10-17T18:19:24.101Z,101387.92
2022-10-17T18:23:03.398Z,101386.17
2022-10-17T18:26:40.498Z,101382.16
2022-10-17T18:30:20.164Z,101380.38
2022-10-17T18:34:02.898Z,101379.84
2022-10-17T18:37:39.320Z,101376.95
2022-10-17T18:41:19.820Z,101380.05
2022-10-17T18:44:56.412Z,101376.82
2022-10-17T18:48:34.586Z,101370.66
2022-10-17T18:52:11.578Z,101369.90
2022-10-17T18:55:51.335Z,101374.91
2022-10-17T18:59:28.250Z,101368.21
2022-10-17T19:03:05.359Z,101370.96
2022-10-17T19:06:44.638Z,101372.45
2022-10-17T19:10:20.595Z,101371.25
2022-10-17T19:14:02.148Z,101368.43
2022-10-17T19:17:38.263Z,101365.90
2022-10-17T19:21:21.523Z,101363.13
2022-10-17T19:24:59.018Z,101362.77
2022-10-17T19:28:39.448Z,101358.66
2022-10-17T19:32:17.971Z,101359.53
2022-10-17T19:35:59.345Z,101360.93
2022-10-17T19:39:37.277Z,101357.79
2022-10-17T19:43:14.901Z,101353.28
2022-10-17T19:46:54.734Z,101351.38
2022-10-17T19:50:32.028Z,101350.91
2022-10-17T19:54:09.416Z,101353.30
2022-10-17T19:57:48.257Z,101353.47
2022-10-17T20:01:29.004Z,101352.88
2022-10-17T20:05:18.422Z,101350.85
2022-10-17T20:08:56.878Z,101351.95
2022-10-17T20:12:35.247Z,101346.33
2022-10-17T20:16:18.485Z,101337.25
2022-10-17T20:19:54.538Z,101331.11
2022-10-17T20:23:33.160Z,101328.63
2022-10-17T20:27:09.961Z,101327.72
2022-10-17T20:30:49.197Z,101327.36
2022-10-17T20:34:26.802Z,101326.20
2022-10-17T20:38:02.997Z,101320.70
2022-10-17T20:41:59.727Z,101322.84
2022-10-17T20:45:18.695Z,101320.98
2022-10-17T20:48:59.230Z,101316.42
2022-10-17T20:52:37.667Z,101306.42
2022-10-17T20:56:20.561Z,101301.34
2022-10-17T20:59:57.055Z,101293.73
2022-10-17T21:03:42.322Z,101290.48
2022-10-17T21:07:22.600Z,101290.09
2022-10-17T21:11:20.390Z,101284.33
2022-10-17T21:14:56.652Z,101281.84
2022-10-17T21:18:34.472Z,101286.27
2022-10-17T21:22:11.982Z,101291.35
2022-10-17T21:25:49.752Z,101288.95
2022-10-17T21:29:27.356Z,101290.57
2022-10-17T21:33:05.675Z,101288.67
2022-10-17T21:36:42.977Z,101287.73
2022-10-17T21:40:20.766Z,101286.08
2022-10-17T21:44:01.015Z,101281.06
2022-10-17T21:47:38.542Z,101277.84
2022-10-17T21:51:18.795Z,101275.10
2022-10-17T21:54:54.677Z,101272.20
2022-10-17T21:58:33.378Z,101264.12
2022-10-17T22:02:10.163Z,101262.40
2022-10-17T22:05:48.274Z,101262.34
2022-10-17T22:09:26.710Z,101263.98
2022-10-17T22:13:04.905Z,101260.73
2022-10-17T22:16:41.910Z,101259.09
2022-10-17T22:20:18.780Z,101256.45
2022-10-17T22:24:02.915Z,101257.73
2022-10-17T22:27:38.894Z,101254.77
2022-10-17T22:31:16.605Z,101251.66
2022-10-17T22:34:54.710Z,101253.23
2022-10-17T22:38:33.596Z,101256.59
2022-10-17T22:42:10.376Z,101254.63
2022-10-17T22:45:58.828Z,101255.38
2022-10-17T22:49:35.158Z,101254.30
2022-10-17T22:53:12.646Z,101256.04
2022-10-17T23:08:01.415Z,101249.53
2022-10-17T23:11:23.837Z,101248.90
2022-10-17T23:14:59.534Z,101250.48
2022-10-17T23:18:38.819Z,101246.73
2022-10-17T23:22:14.599Z,101245.03
2022-10-17T23:25:53.102Z,101243.30
2022-10-17T23:29:33.857Z,101239.28
2022-10-17T23:33:13.032Z,101238.75
2022-10-17T23:36:50.049Z,101243.78
2022-10-17T23:40:28.408Z,101242.21
2022-10-17T23:55:33.495Z,101234.42
